Time;durP1;ratioP1;P1;durP2;ratioP2;P2;SDS_P1;SDS_P2;PMS_P1;PMS_P2;Temp;Humidity;BMP_temperature;BMP_pressure;BME280_temperature;BME280_humidity;BME280_pressure;Samples;Min_cycle;Max_cycle;Signal;HPM_P1;HPM_P2
2023/05/31 00:02:12;;;;;;;9.38;5.25;;;;;;;;;;5012519;28;20236;-61
2023/05/31 00:04:38;;;;;;;7.50;4.90;;;;;;;;;;5013130;28;20210;-62
2023/05/31 00:07:04;;;;;;;9.60;5.47;;;;;;;;;;5011949;28;20228;-61
2023/05/31 00:09:29;;;;;;;9.55;5.68;;;;;;;;;;5012943;28;20675;-62
2023/05/31 00:11:55;;;;;;;8.75;5.10;;;;;;;;;;5012931;28;20334;-62
2023/05/31 00:14:20;;;;;;;9.32;5.13;;;;;;;;;;5011335;28;20244;-62
2023/05/31 00:16:45;;;;;;;8.88;5.63;;;;;;;;;;5012976;28;20212;-62
2023/05/31 00:19:11;;;;;;;8.60;4.80;;;;;;;;;;5011878;28;20560;-62
2023/05/31 00:21:36;;;;;;;9.73;5.65;;;;;;;;;;5013066;28;20243;-62
2023/05/31 00:24:01;;;;;;;9.98;5.22;;;;;;;;;;5012507;28;20244;-61
2023/05/31 00:26:26;;;;;;;9.80;5.80;;;;;;;;;;5011760;28;20228;-61
2023/05/31 00:28:52;;;;;;;10.13;5.85;;;;;;;;;;5012812;28;20581;-61
2023/05/31 00:31:17;;;;;;;9.10;5.82;;;;;;;;;;5012194;28;20271;-61
2023/05/31 00:33:43;;;;;;;11.57;6.30;;;;;;;;;;5011917;28;20247;-62
2023/05/31 00:36:08;;;;;;;10.85;5.75;;;;;;;;;;5011358;28;20220;-61
2023/05/31 00:38:34;;;;;;;9.27;5.88;;;;;;;;;;5012641;28;20212;-61
2023/05/31 00:40:59;;;;;;;10.50;5.75;;;;;;;;;;5011735;28;20223;-62
2023/05/31 00:43:24;;;;;;;8.80;5.57;;;;;;;;;;5012328;28;20212;-61
2023/05/31 00:45:50;;;;;;;8.98;5.82;;;;;;;;;;5011377;28;20279;-62
2023/05/31 00:48:15;;;;;;;9.82;6.07;;;;;;;;;;5003449;28;20217;-61
2023/05/31 00:50:40;;;;;;;10.23;6.25;;;;;;;;;;4999053;28;20264;-62
2023/05/31 00:53:06;;;;;;;10.80;6.57;;;;;;;;;;4982746;28;20501;-61
2023/05/31 00:55:31;;;;;;;10.30;6.35;;;;;;;;;;4985773;28;20209;-62
2023/05/31 00:57:57;;;;;;;11.02;6.72;;;;;;;;;;4998023;28;20205;-62
2023/05/31 01:00:22;;;;;;;11.63;7.05;;;;;;;;;;4978544;28;20209;-62
2023/05/31 01:02:50;;;;;;;11.10;7.07;;;;;;;;;;4974685;28;20695;-62
2023/05/31 01:05:15;;;;;;;9.40;6.60;;;;;;;;;;4975029;28;20274;-62
2023/05/31 01:07:41;;;;;;;11.00;6.82;;;;;;;;;;4979442;28;20217;-62
2023/05/31 01:10:06;;;;;;;10.07;7.05;;;;;;;;;;4981864;28;20221;-61
2023/05/31 01:12:31;;;;;;;11.90;7.25;;;;;;;;;;4983135;28;20213;-62
2023/05/31 01:15:01;;;;;;;10.85;6.88;;;;;;;;;;4983082;28;20228;-62
2023/05/31 01:17:30;;;;;;;12.48;7.47;;;;;;;;;;5015807;28;20205;-62
2023/05/31 01:19:55;;;;;;;11.93;7.35;;;;;;;;;;5002172;28;20578;-62
2023/05/31 01:22:41;;;;;;;11.98;6.55;;;;;;;;;;4996295;28;20229;-62
2023/05/31 01:25:27;;;;;;;11.82;6.72;;;;;;;;;;4993523;28;20228;-62
2023/05/31 01:27:53;;;;;;;12.57;7.18;;;;;;;;;;4993936;28;20331;-62
2023/05/31 01:30:18;;;;;;;13.20;7.25;;;;;;;;;;4997288;28;20227;-62
2023/05/31 01:32:44;;;;;;;10.32;7.05;;;;;;;;;;5017049;28;20208;-62
2023/05/31 01:35:09;;;;;;;12.82;7.80;;;;;;;;;;5016854;28;20212;-61
2023/05/31 01:37:34;;;;;;;12.80;7.90;;;;;;;;;;5001511;28;20536;-62
2023/05/31 01:40:00;;;;;;;11.32;7.50;;;;;;;;;;5002109;28;20644;-62
2023/05/31 01:42:25;;;;;;;13.23;8.27;;;;;;;;;;5001769;28;20217;-62
2023/05/31 01:44:50;;;;;;;14.30;8.23;;;;;;;;;;4999523;28;20254;-62
2023/05/31 01:47:16;;;;;;;13.05;7.90;;;;;;;;;;4994827;28;20759;-62
2023/05/31 01:49:41;;;;;;;10.90;7.60;;;;;;;;;;5012613;28;20212;-62
2023/05/31 01:52:07;;;;;;;15.52;8.68;;;;;;;;;;4997611;28;20216;-61
2023/05/31 01:54:32;;;;;;;12.00;8.00;;;;;;;;;;5018237;28;20220;-61
2023/05/31 01:56:58;;;;;;;15.93;8.63;;;;;;;;;;4986234;28;20632;-62
2023/05/31 01:59:23;;;;;;;14.02;7.97;;;;;;;;;;4985509;28;20224;-62
2023/05/31 02:01:48;;;;;;;14.15;8.15;;;;;;;;;;5001228;28;20205;-62
2023/05/31 02:04:17;;;;;;;12.93;8.00;;;;;;;;;;5000439;28;20228;-61
2023/05/31 02:06:42;;;;;;;14.77;8.95;;;;;;;;;;5004364;28;20252;-62
2023/05/31 02:09:07;;;;;;;12.60;7.90;;;;;;;;;;4997624;28;20247;-62
2023/05/31 02:11:33;;;;;;;14.73;9.13;;;;;;;;;;4996886;28;20686;-62
2023/05/31 02:13:58;;;;;;;13.25;9.23;;;;;;;;;;4995841;28;20226;-62
2023/05/31 02:16:23;;;;;;;14.98;9.32;;;;;;;;;;4984725;28;20578;-62
2023/05/31 02:18:51;;;;;;;14.85;9.43;;;;;;;;;;4985021;28;20220;-61
2023/05/31 02:21:16;;;;;;;16.45;9.35;;;;;;;;;;5004063;28;20252;-61
2023/05/31 02:23:41;;;;;;;15.77;9.30;;;;;;;;;;5005189;28;20257;-61
2023/05/31 02:26:07;;;;;;;15.52;9.05;;;;;;;;;;5003507;28;20582;-60
2023/05/31 02:28:32;;;;;;;18.45;9.43;;;;;;;;;;5005099;28;20266;-60
2023/05/31 02:30:57;;;;;;;15.35;9.45;;;;;;;;;;5000250;28;20255;-61
2023/05/31 02:33:23;;;;;;;19.30;9.93;;;;;;;;;;4995095;28;20223;-61
2023/05/31 02:35:49;;;;;;;16.17;9.68;;;;;;;;;;4996388;28;20239;-61
2023/05/31 02:38:14;;;;;;;15.43;9.95;;;;;;;;;;5000656;28;20590;-61
2023/05/31 02:40:39;;;;;;;16.13;9.57;;;;;;;;;;5004375;28;20236;-61
2023/05/31 02:43:05;;;;;;;20.95;10.82;;;;;;;;;;5004320;28;20220;-60
2023/05/31 02:45:30;;;;;;;18.00;10.52;;;;;;;;;;5004937;28;20213;-61
2023/05/31 02:47:55;;;;;;;18.20;10.13;;;;;;;;;;5003481;28;20235;-61
2023/05/31 02:50:21;;;;;;;17.42;10.18;;;;;;;;;;5003824;28;20727;-61
2023/05/31 02:52:46;;;;;;;15.95;10.23;;;;;;;;;;4992978;28;20243;-62
2023/05/31 02:55:11;;;;;;;16.02;10.63;;;;;;;;;;4981380;28;20687;-61
2023/05/31 02:57:37;;;;;;;20.88;11.75;;;;;;;;;;4976819;28;20279;-62
2023/05/31 03:00:10;;;;;;;19.00;10.63;;;;;;;;;;4977033;28;20292;-60
2023/05/31 03:02:36;;;;;;;21.27;11.75;;;;;;;;;;4986696;28;20212;-62
2023/05/31 03:05:03;;;;;;;19.70;10.52;;;;;;;;;;4984523;28;20718;-61
2023/05/31 03:07:29;;;;;;;18.00;11.35;;;;;;;;;;5004111;28;20558;-62
2023/05/31 03:09:55;;;;;;;21.10;11.63;;;;;;;;;;5002976;28;20572;-62
2023/05/31 03:12:20;;;;;;;17.35;10.80;;;;;;;;;;5003730;28;20272;-61
2023/05/31 03:14:46;;;;;;;19.05;11.55;;;;;;;;;;4997090;28;20217;-62
2023/05/31 03:17:11;;;;;;;19.58;11.38;;;;;;;;;;4976603;28;20217;-61
2023/05/31 03:19:36;;;;;;;18.40;11.60;;;;;;;;;;4976302;28;20213;-61
2023/05/31 03:22:02;;;;;;;22.10;12.35;;;;;;;;;;4975359;28;20283;-61
2023/05/31 03:24:27;;;;;;;23.42;12.30;;;;;;;;;;4983412;28;20213;-61
2023/05/31 03:26:54;;;;;;;23.23;14.07;;;;;;;;;;5003610;28;20232;-61
2023/05/31 03:29:20;;;;;;;22.45;12.98;;;;;;;;;;5002644;28;20651;-61
2023/05/31 03:31:45;;;;;;;19.52;12.70;;;;;;;;;;5003938;28;20633;-61
2023/05/31 03:34:10;;;;;;;22.20;12.23;;;;;;;;;;5003293;28;20239;-60
2023/05/31 03:36:36;;;;;;;20.30;12.32;;;;;;;;;;5002658;28;20773;-61
2023/05/31 03:39:02;;;;;;;24.55;12.32;;;;;;;;;;4999010;28;20270;-61
2023/05/31 03:41:27;;;;;;;21.90;13.07;;;;;;;;;;4995290;28;20270;-61
2023/05/31 03:43:52;;;;;;;27.60;13.35;;;;;;;;;;4994831;28;20758;-61
2023/05/31 03:46:18;;;;;;;23.50;13.10;;;;;;;;;;4999562;28;20561;-61
2023/05/31 03:48:44;;;;;;;21.75;12.10;;;;;;;;;;5003156;28;20208;-61
2023/05/31 03:51:09;;;;;;;25.63;13.10;;;;;;;;;;5002519;28;20686;-61
2023/05/31 03:53:34;;;;;;;23.30;12.93;;;;;;;;;;5001677;28;20652;-61
2023/05/31 03:56:00;;;;;;;24.95;13.40;;;;;;;;;;4989452;28;20221;-61
2023/05/31 03:58:25;;;;;;;25.42;12.82;;;;;;;;;;4982897;28;20609;-61
2023/05/31 04:00:51;;;;;;;24.83;13.40;;;;;;;;;;4981825;28;20220;-61
2023/05/31 04:03:16;;;;;;;28.40;14.38;;;;;;;;;;4975634;28;20228;-60
2023/05/31 04:05:41;;;;;;;24.55;13.90;;;;;;;;;;4992500;28;20662;-61
2023/05/31 04:08:06;;;;;;;23.05;13.13;;;;;;;;;;4996423;28;20220;-60
2023/05/31 04:10:32;;;;;;;28.08;14.07;;;;;;;;;;5003112;28;20215;-61
2023/05/31 04:12:57;;;;;;;24.75;13.40;;;;;;;;;;5002078;28;20224;-61
2023/05/31 04:15:23;;;;;;;24.58;14.13;;;;;;;;;;4991012;28;20283;-61
2023/05/31 04:17:48;;;;;;;23.17;12.50;;;;;;;;;;4983511;28;20213;-61
2023/05/31 04:20:13;;;;;;;23.23;13.40;;;;;;;;;;4982567;28;20307;-61
2023/05/31 04:22:39;;;;;;;24.17;13.90;;;;;;;;;;4983345;28;20798;-61
2023/05/31 04:25:05;;;;;;;21.25;13.63;;;;;;;;;;4976128;28;20596;-61
2023/05/31 04:27:32;;;;;;;28.48;15.70;;;;;;;;;;4974864;28;20236;-61
2023/05/31 04:29:57;;;;;;;23.08;14.45;;;;;;;;;;4975623;28;20213;-61
2023/05/31 04:32:23;;;;;;;23.13;13.88;;;;;;;;;;4981757;28;20209;-61
2023/05/31 04:34:57;;;;;;;21.52;13.55;;;;;;;;;;4983301;28;20718;-61
2023/05/31 04:37:23;;;;;;;23.15;14.43;;;;;;;;;;5001903;28;20614;-61
2023/05/31 04:39:48;;;;;;;26.98;14.40;;;;;;;;;;5001830;28;20212;-61
2023/05/31 04:42:13;;;;;;;27.77;15.20;;;;;;;;;;5002371;28;20232;-61
2023/05/31 04:44:39;;;;;;;23.65;14.93;;;;;;;;;;5002651;28;20539;-61
2023/05/31 04:47:04;;;;;;;22.13;14.63;;;;;;;;;;4996981;28;20582;-61
2023/05/31 04:49:30;;;;;;;26.73;16.25;;;;;;;;;;4994490;28;20213;-61
2023/05/31 04:51:56;;;;;;;28.90;16.42;;;;;;;;;;4990629;28;20356;-61
2023/05/31 04:54:21;;;;;;;30.00;16.15;;;;;;;;;;4979534;28;20217;-61
2023/05/31 04:56:47;;;;;;;26.13;16.25;;;;;;;;;;4987482;28;20225;-61
2023/05/31 04:59:12;;;;;;;24.65;15.93;;;;;;;;;;4982691;28;20785;-61
2023/05/31 05:01:39;;;;;;;26.83;15.63;;;;;;;;;;4982561;28;20213;-61
2023/05/31 05:04:04;;;;;;;26.27;16.35;;;;;;;;;;4982546;28;20220;-61
2023/05/31 05:06:29;;;;;;;25.02;15.60;;;;;;;;;;4983313;28;20233;-61
2023/05/31 05:08:55;;;;;;;21.58;14.82;;;;;;;;;;4979902;28;20212;-61
2023/05/31 05:11:21;;;;;;;22.65;14.98;;;;;;;;;;4994238;28;20690;-61
2023/05/31 05:13:46;;;;;;;23.27;15.13;;;;;;;;;;4993999;28;20584;-61
2023/05/31 05:16:11;;;;;;;23.85;15.00;;;;;;;;;;4977027;28;20283;-61
2023/05/31 05:18:37;;;;;;;22.75;14.82;;;;;;;;;;4984626;28;20213;-61
2023/05/31 05:21:03;;;;;;;21.90;14.68;;;;;;;;;;5003424;28;20691;-60
2023/05/31 05:23:29;;;;;;;21.77;14.23;;;;;;;;;;5014130;28;20234;-60
2023/05/31 05:25:54;;;;;;;21.85;14.77;;;;;;;;;;5015811;28;20809;-59
2023/05/31 05:28:19;;;;;;;19.33;13.43;;;;;;;;;;5015674;28;20224;-58
2023/05/31 05:30:45;;;;;;;18.77;13.18;;;;;;;;;;5013830;28;20223;-60
2023/05/31 05:33:10;;;;;;;21.98;13.05;;;;;;;;;;5014914;28;20230;-59
2023/05/31 05:35:35;;;;;;;22.38;14.82;;;;;;;;;;5013369;28;20278;-59
2023/05/31 05:38:00;;;;;;;23.95;13.93;;;;;;;;;;5014028;28;20236;-56
2023/05/31 05:40:26;;;;;;;21.75;13.93;;;;;;;;;;5015334;28;20216;-60
2023/05/31 05:42:52;;;;;;;17.60;12.48;;;;;;;;;;5014408;28;20205;-59
2023/05/31 05:45:18;;;;;;;21.98;13.38;;;;;;;;;;5014855;28;20660;-60
2023/05/31 05:47:44;;;;;;;20.15;13.15;;;;;;;;;;5013804;28;20220;-61
2023/05/31 05:50:10;;;;;;;19.40;12.52;;;;;;;;;;5013935;28;20205;-59
2023/05/31 05:52:35;;;;;;;21.45;12.95;;;;;;;;;;5015103;28;20254;-59
2023/05/31 05:55:01;;;;;;;18.67;11.93;;;;;;;;;;5012445;28;20208;-58
2023/05/31 05:57:26;;;;;;;19.65;11.27;;;;;;;;;;5014352;28;20209;-59
2023/05/31 05:59:52;;;;;;;19.60;11.80;;;;;;;;;;5015021;28;20209;-60
2023/05/31 06:02:17;;;;;;;19.58;11.95;;;;;;;;;;5011562;28;20281;-59
2023/05/31 06:04:43;;;;;;;17.80;12.25;;;;;;;;;;5014053;28;20205;-59
2023/05/31 06:07:08;;;;;;;16.67;11.23;;;;;;;;;;5014229;28;20216;-59
2023/05/31 06:09:33;;;;;;;18.40;11.05;;;;;;;;;;5014742;28;20212;-59
2023/05/31 06:12:00;;;;;;;16.13;11.73;;;;;;;;;;5014007;28;20739;-60
2023/05/31 06:14:25;;;;;;;20.33;11.00;;;;;;;;;;5014314;28;20211;-61
2023/05/31 06:16:50;;;;;;;16.55;10.38;;;;;;;;;;5014925;28;20208;-60
2023/05/31 06:19:16;;;;;;;15.75;10.45;;;;;;;;;;5013703;28;20205;-59
2023/05/31 06:21:41;;;;;;;15.05;10.30;;;;;;;;;;5014397;28;20216;-60
2023/05/31 06:24:06;;;;;;;15.70;9.98;;;;;;;;;;5009250;28;20282;-59
2023/05/31 06:26:35;;;;;;;15.90;9.82;;;;;;;;;;5011990;28;20319;-59
2023/05/31 06:29:00;;;;;;;17.63;9.98;;;;;;;;;;5010416;28;20219;-59
2023/05/31 06:31:26;;;;;;;20.27;10.10;;;;;;;;;;5011230;28;20208;-59
2023/05/31 06:33:51;;;;;;;14.13;9.13;;;;;;;;;;5013439;28;20208;-60
2023/05/31 06:36:16;;;;;;;15.95;9.65;;;;;;;;;;5013944;28;20258;-59
2023/05/31 06:38:42;;;;;;;15.45;10.13;;;;;;;;;;5014180;28;20212;-60
2023/05/31 06:41:07;;;;;;;17.30;10.07;;;;;;;;;;5012777;28;20213;-60
2023/05/31 06:43:32;;;;;;;17.75;10.52;;;;;;;;;;5014226;28;20224;-60
2023/05/31 06:45:58;;;;;;;19.33;9.90;;;;;;;;;;5013043;28;20659;-60
2023/05/31 06:48:23;;;;;;;16.48;10.35;;;;;;;;;;5013755;28;20719;-60
2023/05/31 06:50:48;;;;;;;18.40;10.82;;;;;;;;;;5014147;28;20216;-60
2023/05/31 06:53:14;;;;;;;18.52;10.40;;;;;;;;;;5012716;28;20208;-60
2023/05/31 06:55:39;;;;;;;17.52;10.73;;;;;;;;;;5011042;28;20213;-60
2023/05/31 06:58:04;;;;;;;15.35;9.77;;;;;;;;;;5013584;28;20676;-60
2023/05/31 07:00:30;;;;;;;18.05;10.10;;;;;;;;;;5013115;28;20304;-60
2023/05/31 07:02:55;;;;;;;16.20;9.65;;;;;;;;;;5013856;28;20209;-60
2023/05/31 07:05:20;;;;;;;16.33;9.95;;;;;;;;;;5013176;28;20226;-60
2023/05/31 07:07:46;;;;;;;18.08;9.60;;;;;;;;;;5013198;28;20220;-61
2023/05/31 07:10:12;;;;;;;14.95;9.13;;;;;;;;;;5013567;28;20262;-61
2023/05/31 07:12:37;;;;;;;14.65;9.20;;;;;;;;;;5014234;28;20208;-60
2023/05/31 07:15:02;;;;;;;15.98;10.13;;;;;;;;;;5011451;28;20216;-59
2023/05/31 07:17:29;;;;;;;16.27;10.02;;;;;;;;;;5013212;28;20200;-59
2023/05/31 07:19:54;;;;;;;16.73;9.13;;;;;;;;;;5014083;28;20227;-59
2023/05/31 07:22:22;;;;;;;18.10;9.02;;;;;;;;;;5012822;28;20212;-59
2023/05/31 07:24:47;;;;;;;17.00;10.00;;;;;;;;;;5013815;28;20212;-59
2023/05/31 07:27:12;;;;;;;16.60;9.35;;;;;;;;;;5013188;28;20601;-59
2023/05/31 07:29:38;;;;;;;16.35;9.40;;;;;;;;;;5013002;28;20224;-59
2023/05/31 07:32:03;;;;;;;16.65;9.50;;;;;;;;;;5013283;28;20303;-58
2023/05/31 07:34:28;;;;;;;17.92;8.95;;;;;;;;;;5013738;28;20243;-59
2023/05/31 07:36:55;;;;;;;14.77;8.88;;;;;;;;;;5012996;28;20295;-59
2023/05/31 07:39:21;;;;;;;20.00;9.60;;;;;;;;;;5012916;28;20212;-59
2023/05/31 07:41:47;;;;;;;17.38;9.23;;;;;;;;;;5013430;28;20794;-59
2023/05/31 07:44:12;;;;;;;17.73;9.25;;;;;;;;;;5012218;28;20295;-59
2023/05/31 07:46:37;;;;;;;16.95;9.13;;;;;;;;;;5013093;28;20266;-59
2023/05/31 07:49:03;;;;;;;17.38;8.95;;;;;;;;;;5011912;28;20582;-58
2023/05/31 07:51:28;;;;;;;15.25;8.75;;;;;;;;;;5012824;28;20675;-59
2023/05/31 07:53:54;;;;;;;15.55;8.30;;;;;;;;;;5013234;28;20354;-59
2023/05/31 07:56:19;;;;;;;16.77;8.82;;;;;;;;;;5011929;28;20240;-59
2023/05/31 07:58:44;;;;;;;13.00;7.28;;;;;;;;;;5013240;28;20204;-59
2023/05/31 08:01:10;;;;;;;17.40;8.25;;;;;;;;;;5012807;28;20223;-59
2023/05/31 08:03:35;;;;;;;16.52;7.75;;;;;;;;;;5012547;28;20227;-59
2023/05/31 08:06:01;;;;;;;17.52;8.65;;;;;;;;;;5012551;28;20252;-59
2023/05/31 08:08:27;;;;;;;16.63;8.27;;;;;;;;;;5013207;28;20220;-59
2023/05/31 08:10:52;;;;;;;16.17;8.77;;;;;;;;;;5012088;28;20212;-59
2023/05/31 08:13:17;;;;;;;15.43;8.20;;;;;;;;;;5012535;28;20227;-59
2023/05/31 08:15:43;;;;;;;13.38;7.28;;;;;;;;;;5012800;28;20219;-59
2023/05/31 08:18:08;;;;;;;13.93;7.57;;;;;;;;;;5011925;28;20235;-59
2023/05/31 08:20:34;;;;;;;15.32;7.13;;;;;;;;;;5013001;28;20667;-59
2023/05/31 08:22:59;;;;;;;13.23;7.53;;;;;;;;;;5012980;28;20227;-59
2023/05/31 08:25:24;;;;;;;14.98;7.70;;;;;;;;;;5011693;28;20296;-59
2023/05/31 08:27:50;;;;;;;14.38;7.72;;;;;;;;;;5012594;28;20761;-59
2023/05/31 08:30:15;;;;;;;15.40;7.13;;;;;;;;;;5012282;28;20204;-59
2023/05/31 08:32:41;;;;;;;16.17;7.25;;;;;;;;;;5012170;28;20212;-59
2023/05/31 08:35:06;;;;;;;14.85;7.05;;;;;;;;;;5012353;28;20212;-59
2023/05/31 08:37:32;;;;;;;13.10;6.70;;;;;;;;;;5012754;28;20295;-59
2023/05/31 08:39:58;;;;;;;13.32;7.20;;;;;;;;;;5011749;28;20224;-59
2023/05/31 08:42:28;;;;;;;13.27;7.65;;;;;;;;;;5012369;28;20306;-59
2023/05/31 08:44:53;;;;;;;14.63;7.28;;;;;;;;;;5012581;28;20557;-59
2023/05/31 08:47:22;;;;;;;13.77;7.07;;;;;;;;;;5011513;28;20229;-59
2023/05/31 08:49:48;;;;;;;16.88;7.10;;;;;;;;;;5012732;28;20208;-59
2023/05/31 08:52:13;;;;;;;12.73;6.82;;;;;;;;;;5002689;28;20355;-60
2023/05/31 08:54:38;;;;;;;14.30;6.80;;;;;;;;;;5009152;28;20208;-60
2023/05/31 08:57:05;;;;;;;15.63;7.20;;;;;;;;;;5011291;28;20220;-60
2023/05/31 08:59:30;;;;;;;12.52;7.05;;;;;;;;;;5016501;28;20677;-59
2023/05/31 09:01:55;;;;;;;11.82;5.97;;;;;;;;;;5015801;28;20750;-59
2023/05/31 09:04:21;;;;;;;16.58;6.70;;;;;;;;;;5015939;28;20311;-60
2023/05/31 09:06:46;;;;;;;15.18;6.65;;;;;;;;;;5015641;28;20777;-59
2023/05/31 09:09:11;;;;;;;12.43;5.82;;;;;;;;;;5015768;28;20303;-60
2023/05/31 09:11:39;;;;;;;14.10;6.63;;;;;;;;;;5015043;28;20196;-60
2023/05/31 09:14:05;;;;;;;11.50;5.90;;;;;;;;;;5014967;28;20239;-59
2023/05/31 09:16:30;;;;;;;11.73;6.03;;;;;;;;;;5016007;28;20645;-59
2023/05/31 09:18:59;;;;;;;11.63;6.00;;;;;;;;;;5016334;28;20727;-60
2023/05/31 09:21:24;;;;;;;14.88;5.55;;;;;;;;;;5015067;28;20236;-60
2023/05/31 09:23:53;;;;;;;11.63;5.28;;;;;;;;;;5014818;28;20227;-60
2023/05/31 09:26:19;;;;;;;11.70;5.20;;;;;;;;;;5012630;28;20264;-60
2023/05/31 09:28:47;;;;;;;10.35;4.75;;;;;;;;;;5014009;28;20290;-60
2023/05/31 09:31:13;;;;;;;12.55;5.32;;;;;;;;;;5015568;28;20220;-60
2023/05/31 09:33:40;;;;;;;10.68;5.00;;;;;;;;;;5014643;28;20308;-60
2023/05/31 09:36:05;;;;;;;10.50;4.93;;;;;;;;;;5014904;28;20212;-60
2023/05/31 09:38:33;;;;;;;11.70;4.82;;;;;;;;;;5015681;28;20217;-60
2023/05/31 09:41:10;;;;;;;9.80;5.03;;;;;;;;;;5015824;28;20244;-60
2023/05/31 09:43:40;;;;;;;12.13;5.10;;;;;;;;;;5014694;28;20210;-60
2023/05/31 09:46:10;;;;;;;8.50;4.55;;;;;;;;;;5013986;28;20224;-60
2023/05/31 09:48:35;;;;;;;12.77;5.07;;;;;;;;;;5015979;28;20242;-60
2023/05/31 09:51:01;;;;;;;12.98;4.32;;;;;;;;;;5014663;28;20213;-59
2023/05/31 09:53:26;;;;;;;7.55;3.17;;;;;;;;;;5014000;28;20239;-60
2023/05/31 09:55:51;;;;;;;10.48;4.20;;;;;;;;;;5014665;28;20247;-59
2023/05/31 09:58:30;;;;;;;12.05;4.20;;;;;;;;;;5015081;28;20212;-60
2023/05/31 10:00:55;;;;;;;9.93;3.97;;;;;;;;;;5015366;28;20205;-60
2023/05/31 10:03:20;;;;;;;11.82;3.67;;;;;;;;;;5012807;28;20539;-60
2023/05/31 10:05:45;;;;;;;10.65;4.00;;;;;;;;;;5012459;28;20205;-60
2023/05/31 10:08:11;;;;;;;10.50;3.80;;;;;;;;;;5012303;28;20303;-60
2023/05/31 10:10:36;;;;;;;12.45;4.18;;;;;;;;;;5012798;28;20667;-60
2023/05/31 10:13:02;;;;;;;9.15;3.35;;;;;;;;;;5012515;28;20229;-60
2023/05/31 10:15:28;;;;;;;9.93;3.10;;;;;;;;;;5013843;28;20215;-60
2023/05/31 10:17:54;;;;;;;13.70;4.35;;;;;;;;;;5011786;28;20208;-60
2023/05/31 10:20:20;;;;;;;10.70;4.22;;;;;;;;;;5012504;28;20246;-60
2023/05/31 10:22:45;;;;;;;8.98;3.17;;;;;;;;;;5013198;28;20591;-60
2023/05/31 10:25:11;;;;;;;9.43;3.22;;;;;;;;;;5013118;28;20224;-60
2023/05/31 10:27:38;;;;;;;10.60;3.85;;;;;;;;;;5012515;28;20220;-60
2023/05/31 10:30:04;;;;;;;11.15;3.90;;;;;;;;;;5013053;28;20627;-60
2023/05/31 10:32:32;;;;;;;11.45;4.18;;;;;;;;;;5014269;28;20204;-60
2023/05/31 10:34:57;;;;;;;11.35;4.32;;;;;;;;;;5012974;28;20212;-61
2023/05/31 10:37:23;;;;;;;9.10;3.65;;;;;;;;;;5013678;28;20212;-60
2023/05/31 10:39:51;;;;;;;11.23;3.97;;;;;;;;;;5012904;28;20228;-61
2023/05/31 10:42:23;;;;;;;10.90;3.40;;;;;;;;;;5014010;28;20216;-61
2023/05/31 10:45:01;;;;;;;10.45;3.50;;;;;;;;;;5013326;28;20691;-61
2023/05/31 10:47:29;;;;;;;11.75;3.97;;;;;;;;;;5012306;28;20252;-61
2023/05/31 10:49:54;;;;;;;13.18;4.03;;;;;;;;;;5012715;28;20204;-61
2023/05/31 10:52:19;;;;;;;12.30;3.67;;;;;;;;;;5011900;28;20223;-61
2023/05/31 10:54:46;;;;;;;9.85;3.65;;;;;;;;;;5013513;28;20208;-61
2023/05/31 10:57:12;;;;;;;10.70;3.40;;;;;;;;;;4994761;28;20225;-61
2023/05/31 10:59:42;;;;;;;9.25;3.45;;;;;;;;;;5009905;28;20216;-61
2023/05/31 11:02:08;;;;;;;11.70;3.72;;;;;;;;;;5013904;28;20320;-60
2023/05/31 11:04:33;;;;;;;10.43;3.40;;;;;;;;;;5014326;28;20232;-61
2023/05/31 11:07:11;;;;;;;10.18;3.60;;;;;;;;;;5012114;28;20221;-61
2023/05/31 11:09:37;;;;;;;9.57;3.35;;;;;;;;;;5013859;28;20208;-61
2023/05/31 11:12:03;;;;;;;9.25;3.17;;;;;;;;;;5013565;28;20236;-61
2023/05/31 11:14:30;;;;;;;13.25;3.50;;;;;;;;;;5011798;28;20251;-61
2023/05/31 11:16:57;;;;;;;9.38;3.30;;;;;;;;;;5012670;28;20291;-61
2023/05/31 11:19:26;;;;;;;10.60;3.17;;;;;;;;;;5013135;28;20205;-61
2023/05/31 11:21:52;;;;;;;8.23;3.22;;;;;;;;;;5012967;28;20213;-61
2023/05/31 11:24:26;;;;;;;9.20;3.65;;;;;;;;;;5013570;28;20278;-61
2023/05/31 11:26:52;;;;;;;10.68;3.88;;;;;;;;;;5013330;28;20729;-60
2023/05/31 11:29:17;;;;;;;8.90;3.28;;;;;;;;;;5012444;28;20749;-61
2023/05/31 11:31:55;;;;;;;10.30;3.70;;;;;;;;;;5012257;28;20217;-60
2023/05/31 11:34:23;;;;;;;10.05;3.60;;;;;;;;;;5012693;28;20216;-60
2023/05/31 11:36:49;;;;;;;11.10;3.33;;;;;;;;;;5013926;28;20220;-60
2023/05/31 11:39:15;;;;;;;11.73;3.80;;;;;;;;;;5012011;28;20730;-61
2023/05/31 11:41:41;;;;;;;10.77;3.67;;;;;;;;;;5011248;28;20217;-60
2023/05/31 11:44:06;;;;;;;13.18;4.00;;;;;;;;;;5011669;28;20216;-61
2023/05/31 11:46:31;;;;;;;11.48;3.70;;;;;;;;;;5011957;28;20225;-60
2023/05/31 11:48:57;;;;;;;8.43;3.72;;;;;;;;;;5011666;28;20287;-61
2023/05/31 11:51:23;;;;;;;11.18;3.88;;;;;;;;;;5013147;28;20239;-61
2023/05/31 11:53:48;;;;;;;8.32;3.28;;;;;;;;;;5012040;28;20668;-60
2023/05/31 11:56:14;;;;;;;7.30;2.95;;;;;;;;;;5011713;28;20300;-61
2023/05/31 11:58:45;;;;;;;10.82;3.78;;;;;;;;;;5013377;28;20252;-61
2023/05/31 12:01:11;;;;;;;8.50;4.10;;;;;;;;;;5010722;28;20719;-61
2023/05/31 12:03:39;;;;;;;10.52;4.25;;;;;;;;;;5012476;28;20299;-61
2023/05/31 12:06:04;;;;;;;13.63;3.63;;;;;;;;;;5012813;28;20220;-61
2023/05/31 12:08:31;;;;;;;11.07;3.55;;;;;;;;;;5011969;28;20319;-61
2023/05/31 12:11:00;;;;;;;9.18;3.45;;;;;;;;;;5010210;28;20292;-61
2023/05/31 12:13:26;;;;;;;7.95;3.75;;;;;;;;;;5012962;28;20224;-61
2023/05/31 12:15:53;;;;;;;8.65;3.17;;;;;;;;;;5011642;28;20212;-61
2023/05/31 12:18:18;;;;;;;9.27;3.40;;;;;;;;;;5011770;28;20227;-61
2023/05/31 12:20:44;;;;;;;9.10;3.80;;;;;;;;;;5013160;28;20287;-60
2023/05/31 12:23:10;;;;;;;9.25;3.92;;;;;;;;;;5012524;28;20239;-60
2023/05/31 12:25:35;;;;;;;11.25;3.60;;;;;;;;;;5011664;28;20208;-61
2023/05/31 12:28:02;;;;;;;9.18;3.50;;;;;;;;;;5012372;28;20242;-61
2023/05/31 12:30:27;;;;;;;11.50;3.90;;;;;;;;;;5012690;28;20220;-61
2023/05/31 12:32:52;;;;;;;10.43;4.60;;;;;;;;;;5011927;28;20657;-61
2023/05/31 12:35:17;;;;;;;10.25;3.85;;;;;;;;;;5012517;28;20322;-62
2023/05/31 12:37:43;;;;;;;7.57;3.33;;;;;;;;;;5011025;28;20212;-61
2023/05/31 12:40:12;;;;;;;10.82;3.80;;;;;;;;;;5011833;28;20224;-62
2023/05/31 12:42:37;;;;;;;12.93;3.80;;;;;;;;;;5012841;28;20262;-62
2023/05/31 12:45:04;;;;;;;10.60;3.72;;;;;;;;;;5010242;28;20216;-61
2023/05/31 12:47:30;;;;;;;7.05;3.30;;;;;;;;;;5012509;28;20286;-62
2023/05/31 12:50:00;;;;;;;8.55;3.67;;;;;;;;;;5012772;28;20236;-62
2023/05/31 12:52:25;;;;;;;10.50;3.58;;;;;;;;;;5009865;28;20292;-61
2023/05/31 12:54:50;;;;;;;10.25;3.08;;;;;;;;;;5012085;28;20320;-61
2023/05/31 12:57:16;;;;;;;7.10;3.55;;;;;;;;;;5012224;28;20258;-61
2023/05/31 12:59:42;;;;;;;9.50;3.83;;;;;;;;;;5011859;28;20693;-61
2023/05/31 13:02:07;;;;;;;11.15;3.58;;;;;;;;;;5012125;28;20212;-61
2023/05/31 13:04:32;;;;;;;9.65;3.22;;;;;;;;;;5012508;28;20219;-61
2023/05/31 13:06:58;;;;;;;10.30;3.25;;;;;;;;;;5011575;28;20279;-61
2023/05/31 13:09:23;;;;;;;9.02;3.53;;;;;;;;;;5010763;28;20217;-61
2023/05/31 13:11:51;;;;;;;12.70;3.83;;;;;;;;;;5012302;28;20208;-61
2023/05/31 13:14:16;;;;;;;8.48;3.53;;;;;;;;;;5011114;28;20246;-61
2023/05/31 13:16:42;;;;;;;8.80;3.45;;;;;;;;;;5012314;28;20242;-61
2023/05/31 13:19:07;;;;;;;11.35;3.38;;;;;;;;;;5011809;28;20267;-61
2023/05/31 13:21:33;;;;;;;10.38;3.60;;;;;;;;;;5011637;28;20235;-61
2023/05/31 13:23:58;;;;;;;11.40;3.30;;;;;;;;;;5012224;28;20225;-62
2023/05/31 13:26:24;;;;;;;9.57;3.20;;;;;;;;;;5011586;28;20591;-62
2023/05/31 13:28:50;;;;;;;8.85;3.67;;;;;;;;;;5011520;28;20592;-61
2023/05/31 13:31:15;;;;;;;6.88;2.95;;;;;;;;;;5011506;28;20213;-62
2023/05/31 13:33:41;;;;;;;10.02;3.70;;;;;;;;;;5010821;28;20209;-62
2023/05/31 13:36:06;;;;;;;7.72;3.75;;;;;;;;;;5010942;28;20588;-62
2023/05/31 13:38:32;;;;;;;10.43;3.90;;;;;;;;;;5010918;28;20220;-61
2023/05/31 13:40:57;;;;;;;14.35;3.42;;;;;;;;;;5011509;28;20583;-62
2023/05/31 13:43:23;;;;;;;9.98;3.47;;;;;;;;;;5012877;28;20215;-61
2023/05/31 13:45:49;;;;;;;10.82;3.13;;;;;;;;;;5015666;28;20566;-61
2023/05/31 13:48:14;;;;;;;9.02;3.30;;;;;;;;;;5014539;28;20281;-61
2023/05/31 13:50:40;;;;;;;6.70;3.03;;;;;;;;;;5015771;28;20216;-62
2023/05/31 13:53:05;;;;;;;10.27;3.88;;;;;;;;;;5015215;28;20668;-62
2023/05/31 13:55:31;;;;;;;11.45;3.65;;;;;;;;;;5014594;28;20253;-61
2023/05/31 13:57:56;;;;;;;9.43;3.78;;;;;;;;;;4995150;28;20603;-61
2023/05/31 14:00:21;;;;;;;10.75;3.10;;;;;;;;;;4992046;28;20758;-61
2023/05/31 14:02:47;;;;;;;8.35;3.17;;;;;;;;;;5001021;28;20248;-61
2023/05/31 14:05:12;;;;;;;10.15;3.25;;;;;;;;;;5003732;28;20671;-61
2023/05/31 14:07:37;;;;;;;9.40;3.08;;;;;;;;;;4992506;28;20244;-61
2023/05/31 14:10:03;;;;;;;11.77;3.33;;;;;;;;;;4989125;28;20216;-61
2023/05/31 14:12:29;;;;;;;11.57;3.55;;;;;;;;;;4989802;28;20217;-61
2023/05/31 14:14:54;;;;;;;9.32;4.03;;;;;;;;;;4996536;28;20208;-62
2023/05/31 14:17:20;;;;;;;10.23;3.38;;;;;;;;;;4992316;28;20224;-61
2023/05/31 14:19:45;;;;;;;7.93;3.00;;;;;;;;;;4989316;28;20578;-61
2023/05/31 14:22:10;;;;;;;7.78;3.63;;;;;;;;;;4981017;28;20235;-62